Aviation Digital Data Service (ADDS)

Output produced by METARs form (0032 UTC 27 May 2017)
found at http://www.aviationweather.gov/adds/metars/
 
KLNS 262353Z 29013KT 10SM BKN075 20/13 A2981 RMK AO2 SLP092 T02000128 10244 20200 53026
KLNS 270010Z 2700/2724 29012KT P6SM BKN070 
     FM270100 30008KT P6SM FEW070 
     FM271400 VRB03KT P6SM VCSH OVC040